BIRO2: Birch Lake

Data processed at Sun May 28 2017 22:03


All information presented herein is the property of the government of the United States of America and may be revised or deleted at any time without prior notice.
Dissemination of this information without the expressed written consent of the Public Affairs Office, Tulsa District U.S. Army Corps of Engineers is strictly prohibited.
These data are gathered electronically and, as presented, have not undergone any form of quality control. These data are not guaranteed to be valid or correct.
Go to home page.
Go to station list.
Go to home page.

Downstream station:


Previous Day
Next Day
Current Day
    
SHEF ID:       BIRO2     Birch Lake
STATION TYPE:  RESERVOIR
Normal Pool:  Bottom =   730.00, Top =   750.50

               PRECIP ELEVATION   STORAGE    INFLOW   RELEASE  AIR-TEMP  WIND-DIRWIND-SPEED REL-HUMID SOLAR-RAD   VOLTAGE  BAT-LOAD
                   in        ft     ac-ft       cfs       cfs         F       deg       mph         %      W/m2      volt      volt
              Ccp-Rev   Ccp-Rev   Ccp-Rev  Regi-Rev  Regi-Rev   Ccp-Rev   Ccp-Rev   Ccp-Rev   Ccp-Rev   Ccp-Rev   Ccp-Rev   Ccp-Rev
(US/Central)
05/28 00:00      0.00    763.29     35614        27       236     70.57     19.00      5.10     64.83      0.10     12.80     12.30
05/28 01:00      0.00    763.27     35579         0       237     68.79      9.00      5.12     68.54      0.10     12.80     12.30
05/28 02:00      0.00    763.26     35562        27       236     67.32    340.00      3.70     70.77      0.10     12.80     12.30
05/28 03:00      0.00    763.24     35527         0       236     65.10    355.00      5.07     81.92      0.10     12.80     12.30
05/28 04:00      0.00    763.22     35493         0       236     64.78      7.00      5.68     82.74      0.11     12.80     12.30
05/28 05:00      0.00    763.20     35458         0       236     63.43    338.00      1.16     86.94      0.11     12.80     12.30
05/28 06:00      0.00    763.19     35441        27       236     61.97    324.00      1.13     87.85      0.17     12.70     12.30
05/28 07:00      0.00    763.17     35407         0       236     60.98    357.00      1.10     86.98     14.17     12.80     12.30
05/28 08:00      0.00    763.16     35389        26       236     62.82    348.00      1.45     83.02    222.66     13.60     12.40
05/28 09:00      0.00    763.14     35355         0       236     64.78     12.00      5.82     75.44    355.50     13.60     13.20
05/28 10:00      0.00    763.12     35320         0       236     67.69     13.00      5.36     64.36    560.19     13.60     13.50
05/28 11:00      0.00    763.10     35286         0       236     70.38      6.00      2.23     58.37    736.47     13.90     13.50
05/28 12:00      0.00    763.09     35268        28       236     72.64    351.00      3.49     51.17    926.81     13.70     13.60
05/28 13:00      0.00    763.07     35234         0       236     74.59    350.00      3.67     48.35   1037.49     14.30     13.50
05/28 14:00      0.00    763.05     35199         0       236     75.06    334.00      3.20     48.24    673.76     13.90     13.60
05/28 15:00      0.00    763.03     35165         0       236     76.66    333.00      3.24     45.30    745.43     13.60     13.60
05/28 16:00      0.00    763.02     35148        28       235     78.19    328.00      2.97     40.19    851.61     14.30     13.00
05/28 17:00      0.00    763.00     35113         0       235     79.12    311.00      2.36     31.70     45.05     13.80     12.90
05/28 18:00      0.00    762.98     35080         0       235     79.11    330.00      2.23     31.24     36.76     13.60     12.90
05/28 19:00      0.00    762.96     35046         0       235     78.37    333.00      1.31     32.89    238.33     13.20     12.90
05/28 20:00      0.00    762.95     35029        30       235     74.73    340.00      0.32     44.64     61.55     13.00     12.70
05/28 21:00      0.00    762.93     34996         0       235     70.50    341.00      0.13     54.80      7.15     12.80     12.50
05/28 22:00      0.00    762.91     34962      ----      ----     66.16    214.00      0.56     78.18      0.11     12.80     12.40
05/28 23:00      ----      ----      ----      ----      ----      ----      ----      ----      ----      ----      ----      ----